Time;durP1;ratioP1;P1;durP2;ratioP2;P2;SDS_P1;SDS_P2;PMS_P1;PMS_P2;Temp;Humidity;BMP_temperature;BMP_pressure;BME280_temperature;BME280_humidity;BME280_pressure;Samples;Min_cycle;Max_cycle;Signal;HPM_P1;HPM_P2
2023/03/15 00:00:33;;;;;;;;;;;2.90;99.90;;;;;;5071038;28;19941;-42
2023/03/15 00:03:02;;;;;;;;;;;3.00;99.90;;;;;;5069989;28;20017;-42
2023/03/15 00:05:30;;;;;;;;;;;2.90;99.90;;;;;;5052721;28;20038;-40
2023/03/15 00:07:57;;;;;;;;;;;2.90;99.90;;;;;;5071046;28;19952;-42
2023/03/15 00:10:24;;;;;;;;;;;2.90;99.90;;;;;;5051835;28;19946;-39
2023/03/15 00:12:50;;;;;;;;;;;2.90;99.90;;;;;;5071403;28;19974;-42
2023/03/15 00:15:18;;;;;;;;;;;2.90;99.90;;;;;;5054991;28;20314;-41
2023/03/15 00:17:45;;;;;;;;;;;2.90;99.90;;;;;;5049158;28;20034;-42
2023/03/15 00:20:13;;;;;;;;;;;3.00;99.90;;;;;;5066695;28;19969;-40
2023/03/15 00:22:40;;;;;;;;;;;2.90;99.90;;;;;;5068969;28;19996;-38
2023/03/15 00:25:07;;;;;;;;;;;3.00;99.90;;;;;;5052181;28;19992;-42
2023/03/15 00:27:33;;;;;;;;;;;3.00;99.90;;;;;;5069825;28;19947;-43
2023/03/15 00:30:00;;;;;;;;;;;3.00;99.90;;;;;;5053710;28;19992;-42
2023/03/15 00:32:28;;;;;;;;;;;3.00;99.90;;;;;;5071629;28;20387;-40
2023/03/15 00:34:55;;;;;;;;;;;3.00;99.90;;;;;;5051283;28;20043;-39
2023/03/15 00:37:24;;;;;;;;;;;3.00;99.90;;;;;;5043965;28;19986;-40
2023/03/15 00:39:51;;;;;;;;;;;3.00;99.90;;;;;;5063611;28;19933;-42
2023/03/15 00:42:17;;;;;;;;;;;3.00;99.90;;;;;;5068986;28;19946;-42
2023/03/15 00:44:44;;;;;;;;;;;3.00;99.90;;;;;;5069207;28;20381;-42
2023/03/15 00:47:11;;;;;;;;;;;2.90;99.90;;;;;;5052639;28;19994;-42
2023/03/15 00:49:39;;;;;;;;;;;2.90;99.90;;;;;;5071681;28;19942;-44
2023/03/15 00:52:05;;;;;;;;;;;2.90;99.90;;;;;;5054183;28;19950;-42
2023/03/15 00:54:32;;;;;;;;;;;2.90;99.90;;;;;;5044548;28;19994;-42
2023/03/15 00:56:59;;;;;;;;;;;2.80;99.90;;;;;;5052897;28;20047;-43
2023/03/15 00:59:27;;;;;;;;;;;2.80;99.90;;;;;;5073196;28;19998;-40
2023/03/15 01:01:54;;;;;;;;;;;2.80;99.90;;;;;;5072868;28;20016;-41
2023/03/15 01:04:21;;;;;;;;;;;2.80;99.90;;;;;;5064697;28;19992;-39
2023/03/15 01:06:49;;;;;;;;;;;2.80;99.90;;;;;;5056637;28;19951;-41
2023/03/15 01:09:15;;;;;;;;;;;2.80;99.90;;;;;;5051702;28;20399;-41
2023/03/15 01:11:42;;;;;;;;;;;2.80;99.90;;;;;;5054906;28;20400;-40
2023/03/15 01:14:08;;;;;;;;;;;2.70;99.90;;;;;;5061324;28;19992;-42
2023/03/15 01:16:35;;;;;;;;;;;2.70;99.90;;;;;;5055017;28;20385;-41
2023/03/15 01:19:02;;;;;;;;;;;2.70;99.90;;;;;;5073947;28;20050;-41
2023/03/15 01:21:28;;;;;;;;;;;2.70;99.90;;;;;;5055243;28;20006;-41
2023/03/15 01:23:56;;;;;;;;;;;2.70;99.90;;;;;;5073227;28;19996;-43
2023/03/15 01:26:23;;;;;;;;;;;2.70;99.90;;;;;;5073409;28;19988;-39
2023/03/15 01:28:50;;;;;;;;;;;2.70;99.90;;;;;;5057733;28;19993;-40
2023/03/15 01:31:17;;;;;;;;;;;2.60;99.90;;;;;;5056889;28;19948;-39
2023/03/15 01:33:43;;;;;;;;;;;2.70;99.90;;;;;;5073945;28;19943;-40
2023/03/15 01:36:10;;;;;;;;;;;2.60;99.90;;;;;;5043046;28;19988;-40
2023/03/15 01:38:37;;;;;;;;;;;2.60;99.90;;;;;;5054817;28;20012;-40
2023/03/15 01:41:05;;;;;;;;;;;2.50;99.90;;;;;;5070684;28;19980;-41
2023/03/15 01:43:32;;;;;;;;;;;2.60;99.90;;;;;;5070485;28;19959;-42
2023/03/15 01:46:02;;;;;;;;;;;2.60;99.90;;;;;;5061477;28;19998;-40
2023/03/15 01:48:29;;;;;;;;;;;2.50;99.90;;;;;;5073739;28;19943;-42
2023/03/15 01:50:56;;;;;;;;;;;2.50;99.90;;;;;;5055555;28;19946;-41
2023/03/15 01:53:23;;;;;;;;;;;2.40;99.90;;;;;;5056909;28;19989;-42
2023/03/15 01:55:51;;;;;;;;;;;2.40;99.90;;;;;;5054869;28;19952;-42
2023/03/15 01:58:20;;;;;;;;;;;2.40;99.90;;;;;;5073803;28;20058;-42
2023/03/15 02:00:46;;;;;;;;;;;2.40;99.90;;;;;;5074350;28;19951;-40
2023/03/15 02:03:14;;;;;;;;;;;2.30;99.90;;;;;;5044503;28;20058;-42
2023/03/15 02:05:44;;;;;;;;;;;2.30;99.90;;;;;;5066920;28;19947;-39
2023/03/15 02:08:11;;;;;;;;;;;2.30;99.90;;;;;;5049529;28;19944;-41
2023/03/15 02:10:38;;;;;;;;;;;2.30;99.90;;;;;;5054648;28;19988;-41
2023/03/15 02:13:05;;;;;;;;;;;2.20;99.90;;;;;;5056136;28;19949;-38
2023/03/15 02:15:33;;;;;;;;;;;2.20;99.90;;;;;;5072833;28;19949;-42
2023/03/15 02:18:00;;;;;;;;;;;2.20;99.90;;;;;;5073359;28;20001;-41
2023/03/15 02:20:29;;;;;;;;;;;2.20;99.90;;;;;;5075900;28;20008;-39
2023/03/15 02:22:56;;;;;;;;;;;2.10;99.90;;;;;;5086460;28;19963;-38
2023/03/15 02:25:26;;;;;;;;;;;2.10;99.90;;;;;;5074206;28;19950;-40
2023/03/15 02:27:53;;;;;;;;;;;2.10;99.90;;;;;;5073295;28;20298;-39
2023/03/15 02:30:20;;;;;;;;;;;2.10;99.90;;;;;;5055820;28;19946;-40
2023/03/15 02:32:50;;;;;;;;;;;2.10;99.90;;;;;;5053883;28;19960;-40
2023/03/15 02:35:22;;;;;;;;;;;2.00;99.90;;;;;;5071089;28;20004;-39
2023/03/15 02:37:49;;;;;;;;;;;2.00;99.90;;;;;;5073468;28;20000;-41
2023/03/15 02:40:16;;;;;;;;;;;2.10;99.90;;;;;;5072115;28;19941;-40
2023/03/15 02:42:43;;;;;;;;;;;2.00;99.90;;;;;;5051704;28;19963;-41
2023/03/15 02:45:11;;;;;;;;;;;2.00;99.90;;;;;;5066541;28;19993;-39
2023/03/15 02:47:38;;;;;;;;;;;2.00;99.90;;;;;;5051854;28;19941;-41
2023/03/15 02:50:06;;;;;;;;;;;2.00;99.90;;;;;;5090810;28;19943;-39
2023/03/15 02:52:33;;;;;;;;;;;2.00;99.90;;;;;;5055987;28;20407;-40
2023/03/15 02:55:00;;;;;;;;;;;1.90;99.90;;;;;;5054517;28;19946;-40
2023/03/15 02:57:27;;;;;;;;;;;1.90;99.90;;;;;;5063400;28;20043;-40
2023/03/15 02:59:54;;;;;;;;;;;1.90;99.90;;;;;;5071291;28;19993;-41
2023/03/15 03:02:22;;;;;;;;;;;1.90;99.90;;;;;;5054268;28;20089;-40
2023/03/15 03:04:51;;;;;;;;;;;1.80;99.90;;;;;;5071957;28;19945;-39
2023/03/15 03:07:18;;;;;;;;;;;1.80;99.90;;;;;;5048408;28;19941;-42
2023/03/15 03:09:44;;;;;;;;;;;1.80;99.90;;;;;;5063151;28;19989;-41
2023/03/15 03:12:11;;;;;;;;;;;1.80;99.90;;;;;;5071764;28;19950;-40
2023/03/15 03:14:38;;;;;;;;;;;1.70;99.90;;;;;;5072076;28;19993;-40
2023/03/15 03:17:04;;;;;;;;;;;1.70;99.90;;;;;;5056692;28;19952;-39
2023/03/15 03:19:32;;;;;;;;;;;1.70;99.90;;;;;;5071655;28;20005;-39
2023/03/15 03:21:59;;;;;;;;;;;1.60;99.90;;;;;;5054529;28;19959;-39
2023/03/15 03:24:25;;;;;;;;;;;1.60;99.90;;;;;;5049811;28;19951;-39
2023/03/15 03:26:56;;;;;;;;;;;1.50;99.90;;;;;;5054467;28;19947;-39
2023/03/15 03:29:23;;;;;;;;;;;1.50;99.90;;;;;;5071492;28;19953;-39
2023/03/15 03:31:49;;;;;;;;;;;1.50;99.90;;;;;;5071696;28;19949;-40
2023/03/15 03:34:16;;;;;;;;;;;1.40;99.90;;;;;;5072783;28;19947;-39
2023/03/15 03:36:44;;;;;;;;;;;1.40;99.90;;;;;;5072995;28;19954;-39
2023/03/15 03:39:11;;;;;;;;;;;1.40;99.90;;;;;;5072046;28;20000;-39
2023/03/15 03:41:37;;;;;;;;;;;1.40;99.90;;;;;;5070770;28;19986;-39
2023/03/15 03:44:04;;;;;;;;;;;1.30;99.90;;;;;;5054567;28;20088;-39
2023/03/15 03:46:31;;;;;;;;;;;1.30;99.90;;;;;;5071081;28;19991;-38
2023/03/15 03:48:57;;;;;;;;;;;1.30;99.90;;;;;;5071777;28;20081;-38
2023/03/15 03:51:24;;;;;;;;;;;1.30;99.90;;;;;;5071833;28;19996;-39
2023/03/15 03:53:52;;;;;;;;;;;1.20;99.90;;;;;;5054280;28;20266;-39
2023/03/15 03:56:19;;;;;;;;;;;1.20;99.90;;;;;;5063272;28;19974;-40
2023/03/15 03:58:45;;;;;;;;;;;1.20;99.90;;;;;;5071186;28;19990;-39
2023/03/15 04:01:12;;;;;;;;;;;1.20;99.90;;;;;;5072195;28;19982;-40
2023/03/15 04:03:38;;;;;;;;;;;1.20;99.90;;;;;;5075173;28;20024;-40
2023/03/15 04:06:05;;;;;;;;;;;1.10;99.90;;;;;;5055341;28;19997;-39
2023/03/15 04:08:32;;;;;;;;;;;1.10;99.90;;;;;;5052791;28;20004;-39
2023/03/15 04:11:02;;;;;;;;;;;1.10;99.90;;;;;;5064939;28;19984;-40
2023/03/15 04:13:29;;;;;;;;;;;1.10;99.90;;;;;;5066973;28;20350;-39
2023/03/15 04:15:56;;;;;;;;;;;1.00;99.90;;;;;;5053709;28;19945;-39
2023/03/15 04:18:23;;;;;;;;;;;1.00;99.90;;;;;;5070681;28;19953;-40
2023/03/15 04:20:53;;;;;;;;;;;1.00;99.90;;;;;;5053822;28;20009;-39
2023/03/15 04:23:20;;;;;;;;;;;1.00;99.90;;;;;;5069390;28;20442;-41
2023/03/15 04:25:47;;;;;;;;;;;1.00;99.90;;;;;;5053166;28;19999;-40
2023/03/15 04:28:15;;;;;;;;;;;1.00;99.90;;;;;;5070971;28;20040;-40
2023/03/15 04:30:42;;;;;;;;;;;1.00;99.90;;;;;;5072440;28;19969;-42
2023/03/15 04:33:09;;;;;;;;;;;1.00;99.90;;;;;;5061319;28;20051;-41
2023/03/15 04:35:37;;;;;;;;;;;1.00;99.90;;;;;;5054465;28;19944;-40
2023/03/15 04:38:04;;;;;;;;;;;1.00;99.90;;;;;;5049005;28;19949;-38
2023/03/15 04:40:33;;;;;;;;;;;0.90;99.90;;;;;;5072606;28;20397;-39
2023/03/15 04:43:00;;;;;;;;;;;0.90;99.90;;;;;;5072239;28;19958;-41
2023/03/15 04:45:29;;;;;;;;;;;0.90;99.90;;;;;;5043993;28;19951;-40
2023/03/15 04:47:55;;;;;;;;;;;0.90;99.90;;;;;;5074136;28;19993;-40
2023/03/15 04:50:22;;;;;;;;;;;0.90;99.90;;;;;;5073881;28;20033;-42
2023/03/15 04:52:49;;;;;;;;;;;0.80;99.90;;;;;;5058120;28;20412;-39
2023/03/15 04:55:16;;;;;;;;;;;0.80;99.90;;;;;;5075482;28;20329;-39
2023/03/15 04:57:43;;;;;;;;;;;0.80;99.90;;;;;;5074269;28;20360;-41
2023/03/15 05:00:10;;;;;;;;;;;0.80;99.90;;;;;;5072780;28;20875;-40
2023/03/15 05:02:38;;;;;;;;;;;0.80;99.90;;;;;;5074936;28;20332;-43
2023/03/15 05:05:05;;;;;;;;;;;0.80;99.90;;;;;;5073400;28;19949;-39
2023/03/15 05:07:33;;;;;;;;;;;0.70;99.90;;;;;;5054140;28;20010;-43
2023/03/15 05:10:00;;;;;;;;;;;0.70;99.90;;;;;;5055906;28;20001;-40
2023/03/15 05:12:27;;;;;;;;;;;0.70;99.90;;;;;;5056298;28;20378;-42
2023/03/15 05:14:53;;;;;;;;;;;0.70;99.90;;;;;;5079937;28;19964;-44
2023/03/15 05:17:21;;;;;;;;;;;0.70;99.90;;;;;;5086912;28;20013;-41
2023/03/15 05:19:50;;;;;;;;;;;0.70;99.90;;;;;;5074991;28;19948;-42
2023/03/15 05:22:17;;;;;;;;;;;0.60;99.90;;;;;;5050846;28;19952;-41
2023/03/15 05:24:43;;;;;;;;;;;0.70;99.90;;;;;;5066553;28;20003;-39
2023/03/15 05:27:10;;;;;;;;;;;0.60;99.90;;;;;;5058167;28;20042;-43
2023/03/15 05:29:37;;;;;;;;;;;0.60;99.90;;;;;;5070404;28;19992;-42
2023/03/15 05:32:04;;;;;;;;;;;0.60;99.90;;;;;;5068465;28;19997;-42
2023/03/15 05:34:31;;;;;;;;;;;0.60;99.90;;;;;;5071291;28;19981;-41
2023/03/15 05:36:59;;;;;;;;;;;0.70;99.90;;;;;;5056344;28;19944;-42
2023/03/15 05:39:26;;;;;;;;;;;0.70;99.90;;;;;;5057115;28;20304;-42
2023/03/15 05:41:52;;;;;;;;;;;0.70;99.90;;;;;;5075254;28;19946;-43
2023/03/15 05:44:19;;;;;;;;;;;0.70;99.90;;;;;;5053960;28;19997;-40
2023/03/15 05:46:45;;;;;;;;;;;0.70;99.90;;;;;;5074187;28;19992;-44
2023/03/15 05:49:12;;;;;;;;;;;0.80;99.90;;;;;;5074349;28;19948;-42
2023/03/15 05:51:39;;;;;;;;;;;0.80;99.90;;;;;;5056388;28;19947;-43
2023/03/15 05:54:07;;;;;;;;;;;0.80;99.90;;;;;;5065295;28;20324;-44
2023/03/15 05:56:33;;;;;;;;;;;0.80;99.90;;;;;;5071336;28;19945;-40
2023/03/15 05:59:01;;;;;;;;;;;0.90;99.90;;;;;;5076435;28;19999;-42
2023/03/15 06:01:28;;;;;;;;;;;0.90;99.90;;;;;;5060739;28;19941;-41
2023/03/15 06:03:55;;;;;;;;;;;0.90;99.90;;;;;;5075561;28;19973;-41
2023/03/15 06:06:21;;;;;;;;;;;1.00;99.90;;;;;;5072439;28;19946;-43
2023/03/15 06:08:48;;;;;;;;;;;1.00;99.90;;;;;;5060837;28;19947;-43
2023/03/15 06:11:16;;;;;;;;;;;1.00;99.90;;;;;;5074608;28;19942;-44
2023/03/15 06:13:42;;;;;;;;;;;1.00;99.90;;;;;;5069167;28;19996;-41
2023/03/15 06:16:09;;;;;;;;;;;1.10;99.90;;;;;;5075577;28;19989;-44
2023/03/15 06:18:36;;;;;;;;;;;1.00;99.90;;;;;;5069077;28;19946;-40
2023/03/15 06:21:02;;;;;;;;;;;1.10;99.90;;;;;;5071440;28;19964;-43
2023/03/15 06:23:29;;;;;;;;;;;1.10;99.90;;;;;;5055894;28;19967;-42
2023/03/15 06:25:56;;;;;;;;;;;1.10;99.90;;;;;;5064130;28;19993;-43
2023/03/15 06:28:24;;;;;;;;;;;1.00;99.90;;;;;;5091408;28;20441;-44
2023/03/15 06:30:50;;;;;;;;;;;1.10;99.90;;;;;;5082104;28;19948;-43
2023/03/15 06:33:17;;;;;;;;;;;1.00;99.90;;;;;;5072948;28;20405;-41
2023/03/15 06:35:45;;;;;;;;;;;1.10;99.90;;;;;;5074156;28;19946;-42
2023/03/15 06:38:13;;;;;;;;;;;1.10;99.90;;;;;;5056329;28;19994;-47
2023/03/15 06:40:39;;;;;;;;;;;1.00;99.90;;;;;;5056218;28;19951;-43
2023/03/15 06:43:06;;;;;;;;;;;1.10;99.90;;;;;;5055930;28;19962;-40
2023/03/15 06:45:34;;;;;;;;;;;1.10;99.90;;;;;;5073794;28;19991;-45
2023/03/15 06:48:01;;;;;;;;;;;1.10;99.90;;;;;;5056065;28;20282;-42
2023/03/15 06:50:27;;;;;;;;;;;1.10;99.90;;;;;;5053902;28;20454;-45
2023/03/15 06:52:55;;;;;;;;;;;1.10;99.90;;;;;;5073612;28;19992;-43
2023/03/15 06:55:22;;;;;;;;;;;1.10;99.90;;;;;;5072967;28;19942;-45
2023/03/15 06:57:49;;;;;;;;;;;1.20;99.90;;;;;;5073745;28;19946;-49
2023/03/15 07:00:16;;;;;;;;;;;1.20;99.90;;;;;;5055815;28;20539;-43
2023/03/15 07:02:44;;;;;;;;;;;1.30;99.90;;;;;;5055557;28;19991;-42
2023/03/15 07:05:10;;;;;;;;;;;1.40;99.90;;;;;;5073194;28;19979;-43
2023/03/15 07:07:37;;;;;;;;;;;1.40;99.90;;;;;;5073137;28;19942;-44
2023/03/15 07:10:04;;;;;;;;;;;1.50;99.90;;;;;;5072999;28;19947;-43
2023/03/15 07:12:31;;;;;;;;;;;1.60;99.90;;;;;;5054986;28;20355;-43
2023/03/15 07:14:57;;;;;;;;;;;1.70;99.90;;;;;;5055683;28;20441;-42
2023/03/15 07:17:24;;;;;;;;;;;1.70;99.90;;;;;;5073204;28;19979;-44
2023/03/15 07:19:52;;;;;;;;;;;1.80;99.90;;;;;;5051917;28;19970;-42
2023/03/15 07:22:21;;;;;;;;;;;1.90;99.90;;;;;;5052236;28;20398;-45
2023/03/15 07:24:47;;;;;;;;;;;2.00;99.90;;;;;;5052304;28;20334;-41
2023/03/15 07:27:14;;;;;;;;;;;2.10;99.90;;;;;;5052223;28;20005;-42
2023/03/15 07:29:41;;;;;;;;;;;2.20;99.90;;;;;;5051834;28;19993;-46
2023/03/15 07:32:07;;;;;;;;;;;2.30;99.90;;;;;;5052215;28;19990;-44
2023/03/15 07:34:34;;;;;;;;;;;2.50;99.90;;;;;;5052150;28;19941;-43
2023/03/15 07:37:02;;;;;;;;;;;2.60;99.90;;;;;;5051961;28;20330;-43
2023/03/15 07:39:31;;;;;;;;;;;2.70;99.90;;;;;;5052788;28;19950;-41
2023/03/15 07:41:57;;;;;;;;;;;2.80;99.90;;;;;;5052187;28;20452;-45
2023/03/15 07:44:24;;;;;;;;;;;2.90;99.90;;;;;;5051463;28;20012;-46
2023/03/15 07:46:51;;;;;;;;;;;3.00;99.90;;;;;;5051588;28;19945;-45
2023/03/15 07:49:18;;;;;;;;;;;3.10;99.90;;;;;;5052776;28;19948;-43
2023/03/15 07:51:44;;;;;;;;;;;3.30;99.90;;;;;;5052613;28;19953;-44
2023/03/15 07:54:12;;;;;;;;;;;3.40;99.90;;;;;;5052638;28;20408;-45
2023/03/15 07:56:39;;;;;;;;;;;3.50;99.90;;;;;;5051680;28;20028;-46
2023/03/15 07:59:05;;;;;;;;;;;3.60;99.90;;;;;;5052625;28;20424;-40
2023/03/15 08:01:32;;;;;;;;;;;3.70;99.90;;;;;;5038236;28;19946;-44
2023/03/15 08:03:59;;;;;;;;;;;3.90;99.90;;;;;;5031646;28;20009;-44
2023/03/15 08:06:25;;;;;;;;;;;3.90;99.90;;;;;;5031461;28;20000;-45
2023/03/15 08:08:52;;;;;;;;;;;4.00;99.90;;;;;;5031580;28;19947;-43
2023/03/15 08:11:20;;;;;;;;;;;4.20;99.90;;;;;;5031630;28;20366;-44
2023/03/15 08:13:47;;;;;;;;;;;4.30;99.90;;;;;;5031497;28;20418;-45
2023/03/15 08:16:13;;;;;;;;;;;4.40;99.90;;;;;;5032521;28;19993;-44
2023/03/15 08:18:40;;;;;;;;;;;4.50;99.90;;;;;;5050506;28;20011;-46
2023/03/15 08:21:06;;;;;;;;;;;4.70;99.90;;;;;;5072199;28;19991;-46
2023/03/15 08:23:33;;;;;;;;;;;4.80;99.90;;;;;;5071983;28;19971;-41
2023/03/15 08:26:00;;;;;;;;;;;4.90;99.90;;;;;;5054719;28;19977;-43
2023/03/15 08:28:28;;;;;;;;;;;5.00;99.90;;;;;;5054597;28;19950;-47
2023/03/15 08:30:54;;;;;;;;;;;5.10;99.90;;;;;;5072126;28;19945;-44
2023/03/15 08:33:22;;;;;;;;;;;5.30;99.90;;;;;;5054510;28;19995;-42
2023/03/15 08:35:51;;;;;;;;;;;5.30;99.90;;;;;;5054412;28;19955;-45
2023/03/15 08:38:18;;;;;;;;;;;5.40;99.90;;;;;;5070423;28;19949;-44
2023/03/15 08:40:45;;;;;;;;;;;5.40;99.90;;;;;;5071079;28;20481;-41
2023/03/15 08:43:12;;;;;;;;;;;5.60;99.90;;;;;;5054275;28;19947;-47
2023/03/15 08:45:40;;;;;;;;;;;5.80;99.90;;;;;;5071893;28;20069;-45
2023/03/15 08:48:07;;;;;;;;;;;5.90;99.90;;;;;;5054410;28;20034;-43
2023/03/15 08:50:33;;;;;;;;;;;5.90;99.90;;;;;;5054299;28;19947;-46
2023/03/15 08:53:00;;;;;;;;;;;5.80;99.90;;;;;;5054285;28;19943;-46
2023/03/15 08:55:27;;;;;;;;;;;5.80;99.90;;;;;;5072131;28;20433;-46
2023/03/15 08:57:53;;;;;;;;;;;5.70;99.90;;;;;;5071982;28;19947;-45
2023/03/15 09:00:21;;;;;;;;;;;5.70;99.90;;;;;;5054297;28;19949;-42
2023/03/15 09:02:50;;;;;;;;;;;5.80;99.90;;;;;;5053327;28;20089;-48
2023/03/15 09:05:17;;;;;;;;;;;5.90;99.90;;;;;;5053968;28;19957;-42
2023/03/15 09:07:44;;;;;;;;;;;6.10;99.90;;;;;;5053991;28;19980;-42
2023/03/15 09:10:13;;;;;;;;;;;6.20;99.90;;;;;;5071995;28;19949;-42
2023/03/15 09:12:40;;;;;;;;;;;6.40;99.90;;;;;;5071920;28;20037;-41
2023/03/15 09:15:07;;;;;;;;;;;6.50;99.90;;;;;;5071804;28;19948;-41
2023/03/15 09:17:34;;;;;;;;;;;6.60;99.90;;;;;;5054010;28;20415;-46
2023/03/15 09:20:06;;;;;;;;;;;6.70;99.90;;;;;;5057603;28;20506;-43
2023/03/15 09:22:33;;;;;;;;;;;6.80;99.90;;;;;;5057690;28;20036;-45
2023/03/15 09:25:00;;;;;;;;;;;6.80;99.90;;;;;;5056660;28;19963;-47
2023/03/15 09:27:26;;;;;;;;;;;6.90;99.90;;;;;;5075211;28;20414;-44
2023/03/15 09:29:53;;;;;;;;;;;7.00;99.90;;;;;;5075152;28;19948;-46
2023/03/15 09:32:20;;;;;;;;;;;7.10;99.90;;;;;;5075424;28;19987;-45
2023/03/15 09:34:47;;;;;;;;;;;7.10;99.90;;;;;;5075130;28;19955;-43
2023/03/15 09:37:15;;;;;;;;;;;7.20;99.90;;;;;;5057431;28;19945;-42
2023/03/15 09:39:41;;;;;;;;;;;7.30;99.90;;;;;;5057479;28;20452;-44
2023/03/15 09:42:10;;;;;;;;;;;7.40;99.90;;;;;;5056516;28;20010;-43
2023/03/15 09:44:39;;;;;;;;;;;7.40;99.90;;;;;;5057079;28;20391;-42
2023/03/15 09:47:10;;;;;;;;;;;7.60;99.90;;;;;;5074825;28;19946;-44
2023/03/15 09:49:39;;;;;;;;;;;7.60;99.90;;;;;;5057123;28;19940;-43
2023/03/15 09:52:08;;;;;;;;;;;7.80;99.90;;;;;;5074879;28;19949;-45
2023/03/15 09:54:38;;;;;;;;;;;7.80;99.90;;;;;;5057089;28;20361;-45
2023/03/15 09:57:07;;;;;;;;;;;7.80;99.90;;;;;;5056840;28;19995;-43
2023/03/15 09:59:34;;;;;;;;;;;7.80;99.90;;;;;;5056954;28;20041;-46
2023/03/15 10:02:01;;;;;;;;;;;7.80;99.90;;;;;;5056809;28;20056;-43
2023/03/15 10:04:28;;;;;;;;;;;7.90;99.90;;;;;;5073145;28;19960;-42
2023/03/15 10:06:55;;;;;;;;;;;8.00;99.90;;;;;;5074618;28;19967;-44
2023/03/15 10:09:22;;;;;;;;;;;8.20;99.90;;;;;;5074609;28;20411;-42
2023/03/15 10:11:53;;;;;;;;;;;8.20;99.90;;;;;;5056975;28;19946;-42
2023/03/15 10:14:23;;;;;;;;;;;8.10;99.90;;;;;;5056670;28;19949;-45
2023/03/15 10:16:50;;;;;;;;;;;8.00;99.90;;;;;;5074364;28;19942;-46
2023/03/15 10:19:18;;;;;;;;;;;8.00;99.90;;;;;;5073958;28;19979;-44
2023/03/15 10:21:48;;;;;;;;;;;8.10;99.90;;;;;;5074470;28;19943;-42
2023/03/15 10:24:19;;;;;;;;;;;8.30;99.90;;;;;;5039537;28;19958;-45
2023/03/15 10:26:46;;;;;;;;;;;8.30;99.90;;;;;;5036833;28;19996;-44
2023/03/15 10:29:16;;;;;;;;;;;8.40;99.90;;;;;;5054001;28;19953;-41
2023/03/15 10:31:45;;;;;;;;;;;8.50;99.90;;;;;;5055990;28;19956;-46
2023/03/15 10:34:14;;;;;;;;;;;8.60;99.90;;;;;;5074257;28;19955;-41
2023/03/15 10:36:45;;;;;;;;;;;8.70;99.90;;;;;;5073068;28;20457;-42
2023/03/15 10:39:12;;;;;;;;;;;8.80;99.90;;;;;;5073177;28;19950;-44
2023/03/15 10:41:40;;;;;;;;;;;9.00;99.90;;;;;;5056550;28;19945;-42
2023/03/15 10:44:07;;;;;;;;;;;9.10;99.90;;;;;;5072185;28;19991;-45
2023/03/15 10:46:35;;;;;;;;;;;9.00;99.90;;;;;;5053934;28;19990;-42
2023/03/15 10:49:08;;;;;;;;;;;9.00;99.90;;;;;;5036067;28;19979;-46
2023/03/15 10:51:37;;;;;;;;;;;9.00;99.90;;;;;;5035963;28;20002;-46
2023/03/15 10:54:05;;;;;;;;;;;9.10;99.90;;;;;;5035801;28;19980;-42
2023/03/15 10:56:32;;;;;;;;;;;9.20;99.90;;;;;;5035907;28;20031;-42
2023/03/15 10:58:58;;;;;;;;;;;9.30;99.90;;;;;;5035928;28;19951;-41
2023/03/15 11:01:26;;;;;;;;;;;9.30;99.50;;;;;;5035693;28;20002;-43
2023/03/15 11:04:15;;;;;;;;;;;9.20;99.90;;;;;;5036172;28;20034;-44
2023/03/15 11:06:44;;;;;;;;;;;9.10;99.90;;;;;;5035986;28;20032;-42
2023/03/15 11:09:11;;;;;;;;;;;9.10;99.90;;;;;;5068904;28;20003;-47
2023/03/15 11:12:07;;;;;;;;;;;9.10;99.70;;;;;;5055606;28;20045;-43
2023/03/15 11:14:35;;;;;;;;;;;9.20;99.90;;;;;;5011223;28;19946;-46
2023/03/15 11:17:01;;;;;;;;;;;9.30;98.80;;;;;;5057906;28;19949;-43
2023/03/15 11:19:28;;;;;;;;;;;9.40;97.40;;;;;;5055033;28;19974;-44
2023/03/15 11:21:56;;;;;;;;;;;9.40;95.80;;;;;;5055423;28;20061;-40
2023/03/15 11:24:24;;;;;;;;;;;9.50;98.50;;;;;;5055204;28;19998;-42
2023/03/15 11:26:53;;;;;;;;;;;9.60;99.90;;;;;;5072484;28;20366;-46
2023/03/15 11:29:21;;;;;;;;;;;9.80;99.90;;;;;;5055387;28;19953;-44
2023/03/15 11:31:49;;;;;;;;;;;9.90;99.20;;;;;;5056504;28;20285;-45
2023/03/15 11:34:17;;;;;;;;;;;9.90;96.90;;;;;;5055161;28;20286;-42
2023/03/15 11:36:44;;;;;;;;;;;10.00;97.20;;;;;;5054315;28;20446;-42
2023/03/15 11:39:13;;;;;;;;;;;10.10;96.00;;;;;;5055341;28;20012;-43
2023/03/15 11:41:41;;;;;;;;;;;10.30;96.10;;;;;;5054859;28;19997;-44
2023/03/15 11:44:11;;;;;;;;;;;10.30;96.40;;;;;;5055161;28;20036;-45
2023/03/15 11:46:39;;;;;;;;;;;10.30;97.50;;;;;;5054633;28;19974;-43
2023/03/15 11:49:09;;;;;;;;;;;10.50;97.10;;;;;;5072476;28;20389;-42
2023/03/15 11:51:36;;;;;;;;;;;10.50;99.00;;;;;;5054585;28;19987;-44
2023/03/15 11:54:07;;;;;;;;;;;10.60;95.80;;;;;;5055166;28;20010;-41
2023/03/15 11:56:48;;;;;;;;;;;10.70;97.80;;;;;;5054106;28;19948;-40
2023/03/15 11:59:16;;;;;;;;;;;10.70;98.70;;;;;;5071567;28;19995;-41
2023/03/15 12:01:43;;;;;;;;;;;10.50;97.20;;;;;;5054842;28;19950;-43
2023/03/15 12:04:40;;;;;;;;;;;10.40;99.30;;;;;;5072483;28;19946;-44
2023/03/15 12:07:11;;;;;;;;;;;10.50;96.50;;;;;;5000809;28;20317;-38
2023/03/15 12:09:39;;;;;;;;;;;10.60;95.10;;;;;;5037310;28;19939;-43
2023/03/15 12:12:31;;;;;;;;;;;10.70;96.70;;;;;;5088353;28;20009;-42
2023/03/15 12:15:01;;;;;;;;;;;10.80;97.90;;;;;;5054952;28;20006;-45
2023/03/15 12:17:38;;;;;;;;;;;10.90;94.40;;;;;;5071989;28;20030;-46
2023/03/15 12:20:08;;;;;;;;;;;10.90;95.40;;;;;;5071262;28;20407;-43
2023/03/15 12:22:34;;;;;;;;;;;11.00;93.60;;;;;;5072932;28;19945;-40
2023/03/15 12:25:04;;;;;;;;;;;11.20;95.50;;;;;;5071426;28;20530;-42
2023/03/15 12:27:32;;;;;;;;;;;11.20;92.10;;;;;;5054794;28;19942;-42
2023/03/15 12:29:59;;;;;;;;;;;11.30;91.80;;;;;;5054461;28;19994;-44
2023/03/15 12:32:26;;;;;;;;;;;11.30;93.00;;;;;;5054603;28;19944;-45
2023/03/15 12:34:53;;;;;;;;;;;11.50;94.70;;;;;;5053764;28;20574;-43
2023/03/15 12:37:20;;;;;;;;;;;11.60;92.90;;;;;;5049536;28;19948;-40
2023/03/15 12:39:47;;;;;;;;;;;11.70;93.30;;;;;;5071871;28;20366;-43
2023/03/15 12:42:15;;;;;;;;;;;11.60;87.70;;;;;;5072442;28;19943;-43
2023/03/15 12:44:43;;;;;;;;;;;11.70;92.50;;;;;;5053930;28;19957;-45
2023/03/15 12:47:10;;;;;;;;;;;11.80;91.80;;;;;;5054379;28;20462;-44
2023/03/15 12:49:37;;;;;;;;;;;11.80;93.10;;;;;;5054390;28;19948;-44
2023/03/15 12:52:04;;;;;;;;;;;11.80;92.00;;;;;;5054556;28;20388;-44
2023/03/15 12:54:32;;;;;;;;;;;11.70;90.60;;;;;;5057711;28;19950;-43
2023/03/15 12:56:59;;;;;;;;;;;11.50;91.80;;;;;;5056813;28;19991;-44
2023/03/15 12:59:31;;;;;;;;;;;11.50;93.30;;;;;;5076047;28;19998;-42
2023/03/15 13:01:59;;;;;;;;;;;11.50;90.80;;;;;;5058250;28;19939;-41
2023/03/15 13:04:26;;;;;;;;;;;11.60;92.10;;;;;;5057926;28;20467;-46
2023/03/15 13:07:05;;;;;;;;;;;11.70;91.30;;;;;;5057656;28;20017;-44
2023/03/15 13:09:37;;;;;;;;;;;11.70;91.60;;;;;;5075892;28;19941;-40
2023/03/15 13:12:07;;;;;;;;;;;11.80;92.90;;;;;;5058174;28;19990;-44
2023/03/15 13:14:36;;;;;;;;;;;11.90;90.60;;;;;;5056885;28;19944;-42
2023/03/15 13:17:06;;;;;;;;;;;11.90;81.10;;;;;;5057819;28;19944;-43
2023/03/15 13:19:34;;;;;;;;;;;11.90;87.50;;;;;;5075583;28;19967;-43
2023/03/15 13:22:04;;;;;;;;;;;12.10;91.00;;;;;;5058007;28;19949;-43
2023/03/15 13:24:33;;;;;;;;;;;12.20;91.00;;;;;;5057702;28;19935;-46
2023/03/15 13:27:00;;;;;;;;;;;12.30;89.30;;;;;;5057538;28;20421;-44
2023/03/15 13:29:27;;;;;;;;;;;12.30;84.00;;;;;;5075240;28;20051;-43
2023/03/15 13:32:08;;;;;;;;;;;12.30;78.70;;;;;;5057749;28;19955;-41
2023/03/15 13:34:35;;;;;;;;;;;12.30;80.90;;;;;;5057857;28;19947;-44
2023/03/15 13:37:02;;;;;;;;;;;12.30;77.50;;;;;;5074538;28;20007;-40
2023/03/15 13:39:29;;;;;;;;;;;12.20;80.20;;;;;;5057380;28;19947;-42
2023/03/15 13:41:59;;;;;;;;;;;12.20;81.70;;;;;;5075081;28;20339;-40
2023/03/15 13:44:25;;;;;;;;;;;12.20;83.00;;;;;;5056818;28;19948;-43
2023/03/15 13:46:52;;;;;;;;;;;12.20;82.70;;;;;;5056864;28;19963;-42
2023/03/15 13:49:20;;;;;;;;;;;12.30;81.80;;;;;;5075042;28;19949;-44
2023/03/15 13:51:47;;;;;;;;;;;12.10;79.60;;;;;;5057231;28;19994;-43
2023/03/15 13:54:16;;;;;;;;;;;12.10;88.00;;;;;;5057413;28;20388;-42
2023/03/15 13:56:45;;;;;;;;;;;12.00;84.80;;;;;;5057061;28;19969;-43
2023/03/15 13:59:12;;;;;;;;;;;12.00;78.80;;;;;;5067156;28;19943;-41
2023/03/15 14:01:41;;;;;;;;;;;12.00;82.30;;;;;;5086156;28;19955;-41
2023/03/15 14:04:08;;;;;;;;;;;12.00;86.40;;;;;;5090975;28;20408;-40
2023/03/15 14:06:36;;;;;;;;;;;12.10;88.10;;;;;;5053421;28;20409;-43
2023/03/15 14:09:07;;;;;;;;;;;12.10;85.80;;;;;;5073387;28;20432;-41
2023/03/15 14:11:36;;;;;;;;;;;12.20;84.60;;;;;;5092927;28;19951;-43
2023/03/15 14:14:04;;;;;;;;;;;12.20;81.20;;;;;;5094509;28;19950;-42
2023/03/15 14:16:32;;;;;;;;;;;12.10;83.50;;;;;;5094560;28;20435;-42
2023/03/15 14:19:07;;;;;;;;;;;12.10;82.70;;;;;;5076587;28;19947;-43
2023/03/15 14:21:34;;;;;;;;;;;12.10;80.40;;;;;;5088644;28;19992;-43
2023/03/15 14:24:06;;;;;;;;;;;12.00;80.50;;;;;;5056528;28;19985;-40
2023/03/15 14:26:33;;;;;;;;;;;12.00;83.80;;;;;;5056294;28;20393;-41
2023/03/15 14:29:00;;;;;;;;;;;11.90;85.10;;;;;;5056260;28;19945;-42
2023/03/15 14:31:27;;;;;;;;;;;12.00;88.00;;;;;;5074172;28;20004;-44